Pagina principale
METAR-TAF:

METAR-TAF

Aeroporti :

Bolzano, Italia

latitudine: 46-28N, longitudine: 011-20E, altezza: 262 m

Osservazione

Il bollettino è stato emesso 1 ora e 0 minuti fa, alle 09:50 UTC
Vento 2 kt da direzioni variabili
Temperature 10°C
Umidità 40%
Pressione 1015 hPa
Visibilità 10 km o più
nessuna nube inferiore a 1500 m e nessun cumulonembo

METAR: LIPB 090950Z VRB02KT CAVOK 10/M03 Q1015 RMK MON LIB

Ora: 11:50 (10:50 UTC)

Previsione

Il bollettino è stato emesso 5 ore e 50 minuti fa, alle 05:00 UTC
Previsione valida dal 09 alle 06 UTC al 10 alle 06 UTC
Vento 4 kt da direzioni variabili
Visibilità 10 km o più
Nubi sparse ad un'altezza di 5000 ft

TAF: LIPB 090500Z 0906/1006 VRB04KT 9999 SCT050

Osservazioni e previsioni meteorologiche di più di 4000 aeroporti (messaggi METAR e TAF).

Le stazioni disponibili sono rappresentate dai dischi gialli e rossi sulla carta.

Puntare il mouse per vedere il nome della stazione.

Clicca sopra per visualizzare le osservazioni e previsioni meteorologiche.

Per cambiare la mappa : fare clic sui pulsanti verdi con una croce nera per ingrandire, il pulsante verde con un trattino per diminuire, o sulla freccia verde per le mappe adiacenti.


METAR-TAF: